首页
METAR-TAF:

METAR-TAF

机场 :

明斯特奥斯纳布吕克国际机场

明斯特 / 奥斯纳布吕克, 德国

纬度: 52-08N, 经度: 007-42E, 海拔: 48米

当前天气观测

该预报发布于25分钟前的03:20 UTC
风速4节,风向,在东北南转南东之间变化
温度 3°C
湿度 87%
气压 1001 hPa
能见度10公里或以上
散云层高于4500英尺

METAR: EDDG 140320Z 10004KT 040V160 9999 SCT045 03/01 Q1001 NOSIG

时间: 04:45 (03:45 UTC)

预报

该预报发布于4小时和45分钟前的23:00 UTC
预报有效从14日的 00点(UTC)到 14日的 24点(UTC)
风速5节,风向东南
能见度10公里或以上
1500米以下无云,无积雨云
几率 30% :
短暂存在
从 14日的 03点(UTC)到 14日的 07点(UTC)
能見度: 3500
轻雾
成为
从 14日的 13点(UTC)到 14日的 16点(UTC)
风速6节,风向东转东北

TAF: EDDG 132300Z 1400/1424 14005KT CAVOK PROB30 TEMPO 1403/1407 3500 BR BECMG 1413/1416 07006KT

超过4000个机场的气象观测和天气预报(METAR&TAF报告)。

可查询的气象台以黄色和红色小点在地图上表示。

将鼠标移到小点上方,可查看气象台名称。

然后点击查看天气观测和预报。

如需切换地图:点击带黑十字的绿色按钮放大地图;点击带横线的绿色按钮缩小地图;或者点击绿色箭头查看邻近地区的地图。


METAR-TAF: